Terminal Aerodrome Forecast
Issued by NWS

Home | Current Version | Previous Version | Text Only | Print | Product List | Glossary On
Versions: 1 2 3 4 5 6 7 8 9 10 11 12 13 14 15 16 17 18 19 20
000
FTUS43 KBIS 040550
TAFMOT
TAF
KMOT 040550Z 0406/0506 33008KT P6SM FEW018 SCT200
     FM040900 32007KT P6SM VCFG SCT010 BKN020
      TEMPO 0410/0414 2SM -SHRA BR BKN015
     FM041400 01011KT 5SM -SHRA BR BKN020 OVC035
     FM042100 01010KT P6SM FEW018 FEW120=

USA.gov is the U.S. government's official web portal to all federal, state and local government web resources and services.